Řízení letového provozu České republiky
Letiste: LKPR Aktualizace: 21.10.2018 00:01:06  UTC
 METAR LKPR 21.10. 00:00 ...
METAR LKPR 210000Z 29004KT 9999 SCT028 08/04 Q1028 NOSIG RMK REG QNH 1023=
 TAF LKPR 20.10. 23:00 ...
TAF LKPR 202300Z 2100/2206 32005KT 9999 SCT040      TEMPO 2100/2108 5000 BR BKN020      BECMG 2110/2112 03005KT      BECMG 2118/2121 VRB02KT      BECMG 2201/2203 3000 BR SCT004      BECMG 2203/2205 0500 FG BKN001=